Time;durP1;ratioP1;P1;durP2;ratioP2;P2;SDS_P1;SDS_P2;PMS_P1;PMS_P2;Temp;Humidity;BMP_temperature;BMP_pressure;BME280_temperature;BME280_humidity;BME280_pressure;Samples;Min_cycle;Max_cycle;Signal;HPM_P1;HPM_P2
2022/08/09 00:00:24;;;;;;;3.27;2.40;;;16.80;99.90;;;;;;4994128;28;20238;-71
2022/08/09 00:02:51;;;;;;;4.87;2.83;;;16.80;1.00;;;;;;4994538;28;20231;-71
2022/08/09 00:05:18;;;;;;;5.20;2.90;;;16.70;1.00;;;;;;4994227;28;20742;-71
2022/08/09 00:07:44;;;;;;;3.10;2.60;;;16.70;1.00;;;;;;4993473;28;20706;-71
2022/08/09 00:10:13;;;;;;;3.77;2.77;;;16.60;1.00;;;;;;4994072;28;20218;-71
2022/08/09 00:12:39;;;;;;;5.03;2.63;;;16.60;1.00;;;;;;4994190;28;20228;-71
2022/08/09 00:15:07;;;;;;;3.20;2.70;;;16.60;1.00;;;;;;4994012;28;20212;-71
2022/08/09 00:17:34;;;;;;;5.37;2.70;;;16.60;1.00;;;;;;4994068;28;20258;-71
2022/08/09 00:20:00;;;;;;;4.00;2.97;;;16.60;1.00;;;;;;4993946;28;20238;-71
2022/08/09 00:22:27;;;;;;;4.97;3.00;;;16.60;1.00;;;;;;4993433;28;20277;-71
2022/08/09 00:24:54;;;;;;;6.60;3.10;;;16.50;1.00;;;;;;4994067;28;20577;-71
2022/08/09 00:27:22;;;;;;;5.40;3.27;;;16.50;68.90;;;;;;4993156;28;20227;-71
2022/08/09 00:29:49;;;;;;;6.23;2.80;;;16.40;99.90;;;;;;4994032;28;20211;-71
2022/08/09 00:32:16;;;;;;;5.63;2.80;;;16.40;99.90;;;;;;4993644;28;20242;-71
2022/08/09 00:34:44;;;;;;;3.00;2.57;;;16.30;99.90;;;;;;4994006;28;20266;-72
2022/08/09 00:37:10;;;;;;;6.03;2.97;;;16.40;99.90;;;;;;4993505;28;20700;-72
2022/08/09 00:39:37;;;;;;;7.23;3.13;;;16.30;1.00;;;;;;4993688;28;20242;-73
2022/08/09 00:42:04;;;;;;;6.40;3.17;;;16.30;1.00;;;;;;4993508;28;20294;-72
2022/08/09 00:44:32;;;;;;;4.63;2.87;;;16.30;1.00;;;;;;4993709;28;20649;-72
2022/08/09 00:46:59;;;;;;;6.97;3.03;;;16.30;1.00;;;;;;4993118;28;20309;-72
2022/08/09 00:49:25;;;;;;;3.37;2.57;;;16.30;99.90;;;;;;4993636;28;20285;-72
2022/08/09 00:51:52;;;;;;;4.10;2.73;;;16.20;99.90;;;;;;4993367;28;20232;-72
2022/08/09 00:54:19;;;;;;;4.57;2.57;;;16.20;99.90;;;;;;4993648;28;20235;-72
2022/08/09 00:56:46;;;;;;;4.67;2.93;;;16.20;1.00;;;;;;4993077;28;20207;-72
2022/08/09 00:59:12;;;;;;;6.43;3.10;;;16.20;1.00;;;;;;4993418;28;20736;-70
2022/08/09 01:01:42;;;;;;;4.07;2.77;;;16.20;99.90;;;;;;4993304;28;20247;-70
2022/08/09 01:04:18;;;;;;;5.57;3.03;;;16.10;99.90;;;;;;4993066;28;20204;-70
2022/08/09 01:06:57;;;;;;;3.93;2.93;;;16.10;1.00;;;;;;4992728;28;20254;-70
2022/08/09 01:09:29;;;;;;;6.13;3.40;;;16.00;99.90;;;;;;4993324;28;20204;-70
2022/08/09 01:12:01;;;;;;;7.00;3.20;;;16.00;1.00;;;;;;4993158;28;20305;-70
2022/08/09 01:14:32;;;;;;;6.20;3.10;;;16.00;99.90;;;;;;4993216;28;20203;-70
2022/08/09 01:17:07;;;;;;;4.10;2.73;;;16.00;99.90;;;;;;4992877;28;20258;-70
2022/08/09 01:19:42;;;;;;;4.33;2.97;;;16.00;1.00;;;;;;4992963;28;20266;-70
2022/08/09 01:22:22;;;;;;;5.60;3.13;;;16.00;52.40;;;;;;4992935;28;20253;-70
2022/08/09 01:24:56;;;;;;;4.83;2.90;;;15.90;99.90;;;;;;4993044;28;20207;-70
2022/08/09 01:27:26;;;;;;;6.40;3.40;;;15.90;99.90;;;;;;4992552;28;20222;-71
2022/08/09 01:29:58;;;;;;;4.50;3.10;;;15.90;99.90;;;;;;4992646;28;20266;-71
2022/08/09 01:32:32;;;;;;;5.20;3.20;;;15.80;99.90;;;;;;4992664;28;20240;-71
2022/08/09 01:35:01;;;;;;;7.80;3.33;;;15.80;99.90;;;;;;4991910;28;20701;-70
2022/08/09 01:37:29;;;;;;;4.00;3.20;;;15.80;99.90;;;;;;4992490;28;20266;-70
2022/08/09 01:40:00;;;;;;;4.40;2.93;;;15.80;99.90;;;;;;4992651;28;20211;-70
2022/08/09 01:42:30;;;;;;;10.73;3.60;;;15.70;1.00;;;;;;4992355;28;20227;-70
2022/08/09 01:44:57;;;;;;;9.17;3.03;;;15.80;1.00;;;;;;4992928;28;20207;-70
2022/08/09 01:47:26;;;;;;;4.07;3.10;;;15.80;1.00;;;;;;4992259;28;20227;-70
2022/08/09 01:49:55;;;;;;;6.93;3.00;;;15.70;1.00;;;;;;4992579;28;20227;-70
2022/08/09 01:52:23;;;;;;;3.83;3.20;;;15.70;1.00;;;;;;4992484;28;20231;-72
2022/08/09 01:54:55;;;;;;;4.97;3.17;;;15.70;1.00;;;;;;4992455;28;20265;-72
2022/08/09 01:57:28;;;;;;;5.10;3.43;;;15.60;1.00;;;;;;4992414;28;20208;-72
2022/08/09 02:00:01;;;;;;;5.90;3.80;;;15.60;1.00;;;;;;4992636;28;20247;-72
2022/08/09 02:02:31;;;;;;;5.17;3.57;;;15.60;1.00;;;;;;4992340;28;20258;-72
2022/08/09 02:05:00;;;;;;;6.30;3.30;;;15.60;1.00;;;;;;4992406;28;20211;-72
2022/08/09 02:07:28;;;;;;;5.13;3.67;;;15.60;1.00;;;;;;4992017;28;20235;-72
2022/08/09 02:09:59;;;;;;;5.73;3.80;;;15.50;1.00;;;;;;4992194;28;20678;-72
2022/08/09 02:12:27;;;;;;;6.47;3.53;;;15.40;1.00;;;;;;4992147;28;20721;-72
2022/08/09 02:14:58;;;;;;;6.37;3.90;;;15.30;1.00;;;;;;4992508;28;20214;-72
2022/08/09 02:17:28;;;;;;;6.63;3.23;;;15.30;1.00;;;;;;4991892;28;20615;-72
2022/08/09 02:19:55;;;;;;;4.10;3.37;;;15.20;1.00;;;;;;4992196;28;20646;-72
2022/08/09 02:22:31;;;;;;;6.00;3.60;;;15.20;1.00;;;;;;4992108;28;20235;-71
2022/08/09 02:25:03;;;;;;;5.80;3.57;;;15.20;1.00;;;;;;4993008;28;20211;-72
2022/08/09 02:27:32;;;;;;;5.37;4.20;;;15.20;1.00;;;;;;4992075;28;20237;-72
2022/08/09 02:30:02;;;;;;;11.27;4.00;;;15.20;1.00;;;;;;4992482;28;20207;-72
2022/08/09 02:32:33;;;;;;;7.17;4.17;;;15.10;1.00;;;;;;4992448;28;20333;-72
2022/08/09 02:35:05;;;;;;;6.77;4.10;;;15.10;1.00;;;;;;4992810;28;20207;-72
2022/08/09 02:37:36;;;;;;;9.57;4.10;;;15.10;1.00;;;;;;4992447;28;20207;-72
2022/08/09 02:40:07;;;;;;;4.40;3.20;;;15.10;1.00;;;;;;4991907;28;20211;-72
2022/08/09 02:42:38;;;;;;;5.27;3.63;;;15.10;1.00;;;;;;4992097;28;20277;-72
2022/08/09 02:45:11;;;;;;;6.03;3.60;;;15.10;1.00;;;;;;4993658;28;20214;-72
2022/08/09 02:47:39;;;;;;;7.30;4.03;;;15.10;1.00;;;;;;4995559;28;20278;-72
2022/08/09 02:50:10;;;;;;;4.80;3.47;;;15.00;1.00;;;;;;4995837;28;20206;-72
2022/08/09 02:52:41;;;;;;;4.63;3.60;;;15.00;1.00;;;;;;4995564;28;20242;-72
2022/08/09 02:55:10;;;;;;;7.07;4.93;;;14.90;1.00;;;;;;5003655;28;20218;-72
2022/08/09 02:57:39;;;;;;;8.37;4.10;;;14.90;1.00;;;;;;5008302;28;20211;-71
2022/08/09 03:00:09;;;;;;;4.37;3.90;;;14.80;1.00;;;;;;5004481;28;20257;-72
2022/08/09 03:02:38;;;;;;;10.97;4.80;;;14.70;1.00;;;;;;4995592;28;20227;-72
2022/08/09 03:05:07;;;;;;;5.60;4.33;;;14.70;1.00;;;;;;4995429;28;20215;-72
2022/08/09 03:07:36;;;;;;;8.13;4.37;;;14.70;1.00;;;;;;4994770;28;20227;-72
2022/08/09 03:10:04;;;;;;;4.17;3.77;;;14.70;1.00;;;;;;4995197;28;20316;-72
2022/08/09 03:12:32;;;;;;;8.10;4.60;;;14.60;1.00;;;;;;4995308;28;20243;-72
2022/08/09 03:15:00;;;;;;;5.73;3.97;;;14.60;1.00;;;;;;4995280;28;20266;-72
2022/08/09 03:17:29;;;;;;;5.33;4.10;;;14.60;1.00;;;;;;4994938;28;20265;-72
2022/08/09 03:19:58;;;;;;;6.53;4.23;;;14.60;1.00;;;;;;4994934;28;20215;-72
2022/08/09 03:22:27;;;;;;;7.13;4.57;;;14.60;1.00;;;;;;4994757;28;20725;-72
2022/08/09 03:24:54;;;;;;;7.07;4.33;;;14.60;1.00;;;;;;4995106;28;20215;-72
2022/08/09 03:27:21;;;;;;;6.53;4.20;;;14.50;1.00;;;;;;4994647;28;20214;-72
2022/08/09 03:29:49;;;;;;;7.17;4.17;;;14.50;1.00;;;;;;4995008;28;20214;-72
2022/08/09 03:32:18;;;;;;;6.03;3.87;;;14.50;1.00;;;;;;4994642;28;20238;-72
2022/08/09 03:34:46;;;;;;;4.63;3.90;;;14.50;1.00;;;;;;4994639;28;20717;-72
2022/08/09 03:37:13;;;;;;;6.57;4.53;;;14.50;1.00;;;;;;4994616;28;20210;-72
2022/08/09 03:39:40;;;;;;;7.83;4.83;;;14.50;1.00;;;;;;4994728;28;20211;-72
2022/08/09 03:42:07;;;;;;;8.90;4.23;;;14.40;1.00;;;;;;4994885;28;20235;-72
2022/08/09 03:44:33;;;;;;;8.37;4.53;;;14.50;1.00;;;;;;4994498;28;20210;-72
2022/08/09 03:47:00;;;;;;;6.43;4.27;;;14.40;3.70;;;;;;4994246;28;20278;-72
2022/08/09 03:49:29;;;;;;;7.83;4.67;;;14.40;5.70;;;;;;4994391;28;20233;-71
2022/08/09 03:51:59;;;;;;;8.03;4.40;;;14.40;7.30;;;;;;4994460;28;20303;-72
2022/08/09 03:54:29;;;;;;;6.73;4.80;;;14.40;10.00;;;;;;4994621;28;20214;-72
2022/08/09 03:56:57;;;;;;;7.00;4.30;;;14.40;11.20;;;;;;4993350;28;20262;-71
2022/08/09 03:59:23;;;;;;;7.07;4.60;;;14.40;12.00;;;;;;4994253;28;20208;-71
2022/08/09 04:01:52;;;;;;;9.67;4.90;;;14.40;12.70;;;;;;4994250;28;20236;-72
2022/08/09 04:04:19;;;;;;;8.93;5.00;;;14.40;15.30;;;;;;4994323;28;20209;-72
2022/08/09 04:06:46;;;;;;;6.73;4.50;;;14.30;19.50;;;;;;4993847;28;20264;-72
2022/08/09 04:09:15;;;;;;;6.40;4.80;;;14.30;22.00;;;;;;4994292;28;20235;-72
2022/08/09 04:12:02;;;;;;;7.97;4.77;;;14.30;24.00;;;;;;4994074;28;20235;-72
2022/08/09 04:14:29;;;;;;;8.90;5.03;;;14.40;26.80;;;;;;4994107;28;20213;-72
2022/08/09 04:16:55;;;;;;;8.13;4.27;;;14.30;26.80;;;;;;4993763;28;20583;-72
2022/08/09 04:19:22;;;;;;;12.13;5.10;;;14.40;27.20;;;;;;4994114;28;20206;-72
2022/08/09 04:21:49;;;;;;;10.00;4.67;;;14.30;26.90;;;;;;4993815;28;20226;-72
2022/08/09 04:24:17;;;;;;;7.43;5.07;;;14.30;28.30;;;;;;4993944;28;20217;-72
2022/08/09 04:26:44;;;;;;;8.97;5.30;;;14.20;35.60;;;;;;4993366;28;20681;-72
2022/08/09 04:29:10;;;;;;;8.90;5.10;;;14.20;55.20;;;;;;4993734;28;20220;-72
2022/08/09 04:31:37;;;;;;;7.80;5.83;;;14.10;82.60;;;;;;4993679;28;20233;-72
2022/08/09 04:34:04;;;;;;;11.27;5.43;;;14.20;92.80;;;;;;4993530;28;20643;-72
2022/08/09 04:36:32;;;;;;;7.43;5.30;;;14.10;99.90;;;;;;4993258;28;20632;-71
2022/08/09 04:39:00;;;;;;;7.83;5.20;;;14.20;99.90;;;;;;4993540;28;20347;-72
2022/08/09 04:41:29;;;;;;;10.07;6.07;;;14.20;99.90;;;;;;4993907;28;20719;-72
2022/08/09 04:43:56;;;;;;;9.87;5.20;;;14.20;99.90;;;;;;4993890;28;20633;-72
2022/08/09 04:46:23;;;;;;;7.47;4.80;;;14.20;99.90;;;;;;4993619;28;20214;-72
2022/08/09 04:48:50;;;;;;;12.50;5.33;;;14.20;99.90;;;;;;4993469;28;20229;-72
2022/08/09 04:51:16;;;;;;;9.50;5.33;;;14.30;99.90;;;;;;4993497;28;20318;-72
2022/08/09 04:53:43;;;;;;;11.73;5.90;;;14.30;99.90;;;;;;4993133;28;20606;-72
2022/08/09 04:56:10;;;;;;;10.93;5.60;;;14.30;99.90;;;;;;4992943;28;20260;-72
2022/08/09 04:58:38;;;;;;;7.57;5.40;;;14.30;99.90;;;;;;4993130;28;20230;-72
2022/08/09 05:01:05;;;;;;;13.70;6.17;;;14.40;99.90;;;;;;4993265;28;20277;-72
2022/08/09 05:03:32;;;;;;;8.10;5.80;;;14.40;99.90;;;;;;4993067;28;20300;-72
2022/08/09 05:05:58;;;;;;;15.53;5.90;;;14.40;99.90;;;;;;4993039;28;20210;-72
2022/08/09 05:08:25;;;;;;;10.67;5.97;;;14.40;99.90;;;;;;4993039;28;20594;-71
2022/08/09 05:10:52;;;;;;;13.00;8.13;;;14.50;99.90;;;;;;4992893;28;20295;-72
2022/08/09 05:13:18;;;;;;;9.53;6.10;;;14.60;99.90;;;;;;4993296;28;20688;-71
2022/08/09 05:15:46;;;;;;;10.70;5.60;;;14.60;99.90;;;;;;4993000;28;20222;-72
2022/08/09 05:18:13;;;;;;;10.07;5.50;;;14.70;99.90;;;;;;4992749;28;20203;-72
2022/08/09 05:20:40;;;;;;;9.07;5.87;;;14.70;99.90;;;;;;4992637;28;20269;-72
2022/08/09 05:23:06;;;;;;;7.33;5.27;;;14.80;99.90;;;;;;4992653;28;20208;-71
2022/08/09 05:25:33;;;;;;;8.53;5.60;;;14.80;99.90;;;;;;4992826;28;20237;-72
2022/08/09 05:28:00;;;;;;;10.60;5.87;;;14.80;99.90;;;;;;4992503;28;20216;-72
2022/08/09 05:30:26;;;;;;;9.23;5.47;;;14.90;99.90;;;;;;4992711;28;20684;-72
2022/08/09 05:32:55;;;;;;;12.90;5.80;;;14.90;95.60;;;;;;4992648;28;20287;-71
2022/08/09 05:35:21;;;;;;;9.07;5.13;;;15.00;92.40;;;;;;4992590;28;20867;-71
2022/08/09 05:37:49;;;;;;;12.60;5.73;;;15.00;90.60;;;;;;4992216;28;20211;-71
2022/08/09 05:40:16;;;;;;;9.70;5.97;;;15.10;87.60;;;;;;4992545;28;20315;-71
2022/08/09 05:42:43;;;;;;;11.30;6.17;;;15.10;82.10;;;;;;4992528;28;20286;-71
2022/08/09 05:45:10;;;;;;;8.47;6.07;;;15.20;68.50;;;;;;4992628;28;20241;-71
2022/08/09 05:47:37;;;;;;;6.90;5.50;;;15.20;55.40;;;;;;4992268;28;20657;-72
2022/08/09 05:50:06;;;;;;;8.67;5.80;;;15.30;55.10;;;;;;4992151;28;20254;-72
2022/08/09 05:52:32;;;;;;;9.73;5.80;;;15.40;49.60;;;;;;4992510;28;20301;-71
2022/08/09 05:54:59;;;;;;;7.93;5.43;;;15.50;42.50;;;;;;4992770;28;20262;-71
2022/08/09 05:57:26;;;;;;;14.93;6.60;;;15.50;30.40;;;;;;4991973;28;20237;-71
2022/08/09 05:59:52;;;;;;;10.43;5.90;;;15.60;32.50;;;;;;4992534;28;20257;-71
2022/08/09 06:02:19;;;;;;;12.40;6.10;;;15.60;30.70;;;;;;4992196;28;20262;-64
2022/08/09 06:04:46;;;;;;;9.70;5.90;;;15.70;25.80;;;;;;4992225;28;20215;-64
2022/08/09 06:07:14;;;;;;;12.67;6.00;;;15.80;21.50;;;;;;4992244;28;20207;-64
2022/08/09 06:09:41;;;;;;;12.67;6.67;;;15.90;11.80;;;;;;4992124;28;20646;-65
2022/08/09 06:12:08;;;;;;;10.90;5.67;;;16.00;1.00;;;;;;4992199;28;20231;-64
2022/08/09 06:14:35;;;;;;;12.97;6.17;;;16.00;1.00;;;;;;4992314;28;20208;-64
2022/08/09 06:17:02;;;;;;;9.23;6.30;;;16.10;1.00;;;;;;4992115;28;20208;-64
2022/08/09 06:19:28;;;;;;;9.43;5.47;;;16.20;1.00;;;;;;4992702;28;20208;-64
2022/08/09 06:21:55;;;;;;;8.93;5.70;;;16.30;1.00;;;;;;4996180;28;20232;-64
2022/08/09 06:24:23;;;;;;;11.20;5.73;;;16.30;1.00;;;;;;4996305;28;20294;-64
2022/08/09 06:26:50;;;;;;;8.53;5.50;;;16.30;1.00;;;;;;4995992;28;20285;-64
2022/08/09 06:29:17;;;;;;;13.93;6.53;;;16.30;1.00;;;;;;4998607;28;20224;-64
2022/08/09 06:31:43;;;;;;;7.87;6.30;;;16.40;1.00;;;;;;4999644;28;20675;-64
2022/08/09 06:34:10;;;;;;;10.10;5.93;;;16.50;1.00;;;;;;4999006;28;20216;-64
2022/08/09 06:36:37;;;;;;;11.47;6.17;;;16.60;1.00;;;;;;4995880;28;20258;-65
2022/08/09 06:39:04;;;;;;;11.70;6.00;;;16.60;1.00;;;;;;4995642;28;20235;-64
2022/08/09 06:41:32;;;;;;;11.07;5.53;;;16.70;1.00;;;;;;4996005;28;20269;-64
2022/08/09 06:43:59;;;;;;;12.47;5.83;;;16.80;1.00;;;;;;4995658;28;20207;-64
2022/08/09 06:46:25;;;;;;;14.60;7.23;;;16.80;1.00;;;;;;4995214;28;20218;-64
2022/08/09 06:48:52;;;;;;;12.10;9.33;;;16.80;1.00;;;;;;4995633;28;20227;-64
2022/08/09 06:51:19;;;;;;;11.77;5.87;;;16.90;1.00;;;;;;4995788;28;20233;-65
2022/08/09 06:53:46;;;;;;;14.37;6.70;;;16.90;1.00;;;;;;4995365;28;20270;-64
2022/08/09 06:56:12;;;;;;;10.23;5.97;;;17.00;1.00;;;;;;4995429;28;20270;-64
2022/08/09 06:58:40;;;;;;;12.60;5.80;;;17.10;1.00;;;;;;4995595;28;20266;-64
2022/08/09 07:01:07;;;;;;;8.73;5.50;;;17.20;1.00;;;;;;4995150;28;20286;-64
2022/08/09 07:03:34;;;;;;;16.60;7.50;;;17.30;1.00;;;;;;4995631;28;20266;-64
2022/08/09 07:06:01;;;;;;;10.17;6.07;;;17.30;1.00;;;;;;4995038;28;20225;-65
2022/08/09 07:08:28;;;;;;;10.13;6.13;;;17.40;1.00;;;;;;4994968;28;20246;-64
2022/08/09 07:10:55;;;;;;;9.50;5.17;;;17.50;1.00;;;;;;4995016;28;20587;-64
2022/08/09 07:13:21;;;;;;;9.47;5.53;;;17.60;1.00;;;;;;4994611;28;20620;-64
2022/08/09 07:15:49;;;;;;;9.27;5.13;;;17.70;1.00;;;;;;4995313;28;20642;-64
2022/08/09 07:18:16;;;;;;;9.43;5.40;;;17.80;1.00;;;;;;4995632;28;20212;-64
2022/08/09 07:20:43;;;;;;;7.47;4.70;;;17.90;1.00;;;;;;4995181;28;20254;-64
2022/08/09 07:23:10;;;;;;;9.93;5.07;;;18.10;1.00;;;;;;4995196;28;20735;-64
2022/08/09 07:25:36;;;;;;;5.60;4.37;;;18.20;1.00;;;;;;4994856;28;20725;-64
2022/08/09 07:28:04;;;;;;;10.33;7.67;;;18.30;99.90;;;;;;4994724;28;20286;-64
2022/08/09 07:30:31;;;;;;;6.93;4.50;;;18.30;99.90;;;;;;4994845;28;20235;-64
2022/08/09 07:32:59;;;;;;;11.13;6.60;;;18.40;99.90;;;;;;4993844;28;20216;-64
2022/08/09 07:35:25;;;;;;;6.40;4.47;;;18.60;99.90;;;;;;4994331;28;20212;-64
2022/08/09 07:37:52;;;;;;;5.63;3.90;;;18.60;99.90;;;;;;4994137;28;20211;-64
2022/08/09 07:40:19;;;;;;;6.70;3.97;;;18.60;15.40;;;;;;4994802;28;20204;-64
2022/08/09 07:42:50;;;;;;;5.37;3.97;;;18.70;99.90;;;;;;4994585;28;20231;-64
2022/08/09 07:45:20;;;;;;;6.63;4.13;;;18.90;95.10;;;;;;4994952;28;20207;-64
2022/08/09 07:47:46;;;;;;;6.00;3.90;;;19.10;1.00;;;;;;4994647;28;20208;-64
2022/08/09 07:50:14;;;;;;;4.83;3.50;;;19.30;99.90;;;;;;4994541;28;20305;-64
2022/08/09 07:52:41;;;;;;;5.53;3.90;;;19.40;99.90;;;;;;4994369;28;20278;-64
2022/08/09 07:55:09;;;;;;;10.83;4.60;;;19.40;99.90;;;;;;4988189;28;20258;-64
2022/08/09 07:57:35;;;;;;;5.03;3.50;;;19.60;1.00;;;;;;4968464;28;20262;-64
2022/08/09 08:00:02;;;;;;;10.47;4.50;;;19.70;99.90;;;;;;4973818;28;20658;-64
2022/08/09 08:02:29;;;;;;;7.57;4.20;;;19.80;99.90;;;;;;4974315;28;20639;-64
2022/08/09 08:04:56;;;;;;;7.60;4.00;;;19.60;99.90;;;;;;4974415;28;20212;-64
2022/08/09 08:07:24;;;;;;;4.90;3.37;;;19.40;1.00;;;;;;4973768;28;20205;-64
2022/08/09 08:09:51;;;;;;;7.73;4.60;;;19.50;99.90;;;;;;4973876;28;20235;-67
2022/08/09 08:12:17;;;;;;;6.43;3.70;;;19.70;99.90;;;;;;4974371;28;20232;-67
2022/08/09 08:14:44;;;;;;;6.13;3.30;;;19.90;99.90;;;;;;4974273;28;20218;-67
2022/08/09 08:17:11;;;;;;;7.60;4.00;;;20.20;1.00;;;;;;4973914;28;20209;-66
2022/08/09 08:19:38;;;;;;;5.93;3.40;;;20.30;1.00;;;;;;4973907;28;20212;-66
2022/08/09 08:22:04;;;;;;;7.43;3.73;;;20.30;1.00;;;;;;4973912;28;20232;-67
2022/08/09 08:24:33;;;;;;;5.33;3.10;;;20.30;1.00;;;;;;4973668;28;20683;-68
2022/08/09 08:26:59;;;;;;;5.97;3.63;;;20.40;1.00;;;;;;4973901;28;20786;-68
2022/08/09 08:29:26;;;;;;;7.60;3.60;;;20.40;1.00;;;;;;4973624;28;20269;-67
2022/08/09 08:31:53;;;;;;;7.30;3.93;;;20.60;99.90;;;;;;4973566;28;20267;-68
2022/08/09 08:34:19;;;;;;;6.33;3.67;;;20.80;99.90;;;;;;4973791;28;20271;-68
2022/08/09 08:36:46;;;;;;;6.17;3.50;;;20.90;99.90;;;;;;4971551;28;20209;-68
2022/08/09 08:39:13;;;;;;;5.40;3.57;;;20.90;99.90;;;;;;4973232;28;20207;-67
2022/08/09 08:41:41;;;;;;;8.33;3.20;;;21.00;99.90;;;;;;4973314;28;20747;-68
2022/08/09 08:44:09;;;;;;;12.23;8.50;;;21.20;99.90;;;;;;4973561;28;20274;-68
2022/08/09 08:46:40;;;;;;;6.40;3.20;;;21.40;99.90;;;;;;4973407;28;20303;-68
2022/08/09 08:49:07;;;;;;;6.67;3.10;;;21.70;99.90;;;;;;4973399;28;20650;-68
2022/08/09 08:51:35;;;;;;;7.07;3.10;;;21.80;99.90;;;;;;4973192;28;20224;-68
2022/08/09 08:54:06;;;;;;;8.20;4.17;;;22.00;99.90;;;;;;4973346;28;20619;-67
2022/08/09 08:56:35;;;;;;;7.40;3.70;;;22.00;99.90;;;;;;4973205;28;20208;-68
2022/08/09 08:59:04;;;;;;;7.07;3.73;;;22.00;99.90;;;;;;4973280;28;20303;-68
2022/08/09 09:01:31;;;;;;;5.97;3.90;;;21.70;99.90;;;;;;4973194;28;20663;-68
2022/08/09 09:03:59;;;;;;;6.03;4.00;;;21.50;99.90;;;;;;4972079;28;20637;-66
2022/08/09 09:06:27;;;;;;;5.53;3.50;;;21.60;99.90;;;;;;4973473;28;20204;-70
2022/08/09 09:08:54;;;;;;;7.17;3.70;;;21.70;99.90;;;;;;4973473;28;20215;-70
2022/08/09 09:11:21;;;;;;;6.97;4.03;;;21.90;99.90;;;;;;4973408;28;20731;-70
2022/08/09 09:13:52;;;;;;;8.03;3.77;;;22.00;99.90;;;;;;4973386;28;20215;-70
2022/08/09 09:16:20;;;;;;;4.73;3.60;;;22.00;99.90;;;;;;4973105;28;20283;-70
2022/08/09 09:18:53;;;;;;;9.30;3.70;;;22.00;99.90;;;;;;4973322;28;20216;-68
2022/08/09 09:21:19;;;;;;;7.37;3.47;;;22.10;99.90;;;;;;4973663;28;20224;-72
2022/08/09 09:23:46;;;;;;;5.47;3.47;;;22.20;99.90;;;;;;4973577;28;20646;-72
2022/08/09 09:26:15;;;;;;;5.57;3.60;;;22.20;99.90;;;;;;4973342;28;20286;-72
2022/08/09 09:28:45;;;;;;;5.87;4.40;;;22.30;99.90;;;;;;4973388;28;20648;-72
2022/08/09 09:31:14;;;;;;;6.07;3.40;;;22.50;99.90;;;;;;4973534;28;20236;-72
2022/08/09 09:33:43;;;;;;;4.30;3.37;;;22.60;99.90;;;;;;4973647;28;20618;-72
2022/08/09 09:36:11;;;;;;;5.80;3.40;;;22.60;99.90;;;;;;4973589;28;20208;-72
2022/08/09 09:38:46;;;;;;;5.73;3.67;;;22.80;99.90;;;;;;4975133;28;20234;-72
2022/08/09 09:41:28;;;;;;;9.73;3.47;;;23.00;99.90;;;;;;4975047;28;20706;-72
2022/08/09 09:43:55;;;;;;;5.90;3.13;;;22.90;99.90;;;;;;4975985;28;20193;-72
2022/08/09 09:46:28;;;;;;;6.37;3.30;;;23.00;99.90;;;;;;4973626;28;20833;-72
2022/08/09 09:49:01;;;;;;;8.30;3.33;;;23.00;99.90;;;;;;4973602;28;20675;-72
2022/08/09 09:51:29;;;;;;;8.80;3.77;;;23.00;99.90;;;;;;4973530;28;20338;-73
2022/08/09 09:54:06;;;;;;;5.17;3.33;;;23.10;99.90;;;;;;4973979;28;20196;-72
2022/08/09 09:56:34;;;;;;;5.60;3.60;;;23.10;99.90;;;;;;4979863;28;20259;-72
2022/08/09 09:59:01;;;;;;;4.30;3.37;;;23.10;99.90;;;;;;4979693;28;20615;-71
2022/08/09 10:01:28;;;;;;;6.43;3.37;;;23.20;99.90;;;;;;4973840;28;20235;-72
2022/08/09 10:03:56;;;;;;;6.40;2.80;;;23.20;99.90;;;;;;4974201;28;20216;-71
2022/08/09 10:06:24;;;;;;;7.40;2.77;;;23.20;99.90;;;;;;4973168;28;20215;-72
2022/08/09 10:08:58;;;;;;;3.60;2.90;;;23.20;99.90;;;;;;4973448;28;20583;-72
2022/08/09 10:11:26;;;;;;;7.17;4.13;;;23.40;99.90;;;;;;4973131;28;20239;-72
2022/08/09 10:13:53;;;;;;;5.53;3.10;;;23.50;99.90;;;;;;4973421;28;20212;-72
2022/08/09 10:16:28;;;;;;;4.37;3.27;;;23.80;99.90;;;;;;4973206;28;20216;-72
2022/08/09 10:18:57;;;;;;;5.40;2.80;;;23.80;99.90;;;;;;4973526;28;20223;-72
2022/08/09 10:21:25;;;;;;;5.67;2.70;;;23.90;99.90;;;;;;4972426;28;20318;-72
2022/08/09 10:23:54;;;;;;;5.23;3.60;;;24.00;99.90;;;;;;4973304;28;20204;-72
2022/08/09 10:26:21;;;;;;;7.93;3.37;;;24.10;99.90;;;;;;4973163;28;20244;-72
2022/08/09 10:28:49;;;;;;;4.83;3.17;;;24.20;99.90;;;;;;4972826;28;20212;-72
2022/08/09 10:31:16;;;;;;;6.60;3.07;;;24.20;99.90;;;;;;4972761;28;20232;-72
2022/08/09 10:33:43;;;;;;;4.73;2.93;;;24.20;99.90;;;;;;4973033;28;20628;-72
2022/08/09 10:36:11;;;;;;;6.43;2.90;;;24.20;99.90;;;;;;4973319;28;20224;-72
2022/08/09 10:38:42;;;;;;;6.87;3.97;;;24.40;99.90;;;;;;4967194;28;20267;-69
2022/08/09 10:41:09;;;;;;;5.03;2.77;;;24.50;99.90;;;;;;4967885;28;20232;-66
2022/08/09 10:43:37;;;;;;;4.63;2.90;;;24.50;99.90;;;;;;4971408;28;20204;-67
2022/08/09 10:46:23;;;;;;;7.13;2.47;;;24.40;99.90;;;;;;4971696;28;20631;-72
2022/08/09 10:48:58;;;;;;;5.63;2.70;;;24.50;99.90;;;;;;4972405;28;20205;-70
2022/08/09 10:51:35;;;;;;;4.40;3.20;;;24.00;99.90;;;;;;4971803;28;20290;-69
2022/08/09 10:54:46;;;;;;;4.10;3.13;;;24.20;99.90;;;;;;4973675;28;20220;-70
2022/08/09 10:57:14;;;;;;;4.00;2.70;;;24.20;99.90;;;;;;4973972;28;20204;-69
2022/08/09 10:59:42;;;;;;;3.50;3.00;;;24.30;99.90;;;;;;4974761;28;20211;-68
2022/08/09 11:02:17;;;;;;;3.53;2.73;;;24.40;99.90;;;;;;4972523;28;20232;-65
2022/08/09 11:05:04;;;;;;;4.63;2.97;;;24.60;99.90;;;;;;4971764;28;20211;-69
2022/08/09 11:07:32;;;;;;;6.60;2.77;;;24.80;99.90;;;;;;4974734;28;20263;-69
2022/08/09 11:09:59;;;;;;;4.00;2.67;;;24.90;99.90;;;;;;4975384;28;20326;-69
2022/08/09 11:12:27;;;;;;;5.63;3.00;;;24.90;99.90;;;;;;4975190;28;20228;-69
2022/08/09 11:14:56;;;;;;;6.27;3.17;;;24.80;99.90;;;;;;4974133;28;20204;-70
2022/08/09 11:17:51;;;;;;;5.17;2.93;;;24.90;99.90;;;;;;4991058;28;20218;-68
2022/08/09 11:20:21;;;;;;;5.67;3.90;;;25.00;99.90;;;;;;4994607;28;20200;-70
2022/08/09 11:23:02;;;;;;;4.50;2.60;;;25.20;99.90;;;;;;4994600;28;20231;-71
2022/08/09 11:25:44;;;;;;;3.00;2.60;;;25.40;99.90;;;;;;4994455;28;20657;-68
2022/08/09 11:28:35;;;;;;;6.67;3.53;;;25.10;99.90;;;;;;4994798;28;20264;-70
2022/08/09 11:31:03;;;;;;;4.13;2.83;;;24.80;99.90;;;;;;4993720;28;20250;-71
2022/08/09 11:33:46;;;;;;;4.50;2.70;;;24.80;99.90;;;;;;4994528;28;20267;-69
2022/08/09 11:36:17;;;;;;;8.90;3.60;;;24.90;99.90;;;;;;4993904;28;20633;-68
2022/08/09 11:39:00;;;;;;;3.70;2.40;;;25.10;99.90;;;;;;4994184;28;20710;-65
2022/08/09 11:41:29;;;;;;;4.60;3.10;;;25.30;99.90;;;;;;4994260;28;20242;-65
2022/08/09 11:43:56;;;;;;;3.37;2.60;;;25.30;99.90;;;;;;4994089;28;20218;-65
2022/08/09 11:46:23;;;;;;;5.57;2.33;;;25.20;99.90;;;;;;4993864;28;20614;-65
2022/08/09 11:48:52;;;;;;;4.37;2.60;;;25.40;99.90;;;;;;4994106;28;20211;-65
2022/08/09 11:51:20;;;;;;;3.40;2.60;;;25.30;99.90;;;;;;4993753;28;20231;-65
2022/08/09 11:54:08;;;;;;;4.00;2.73;;;25.60;99.90;;;;;;4993946;28;20745;-65
2022/08/09 11:56:35;;;;;;;5.03;2.80;;;25.70;99.90;;;;;;4993626;28;20559;-65
2022/08/09 11:59:02;;;;;;;2.67;2.47;;;25.60;99.90;;;;;;4993716;28;20207;-66
2022/08/09 12:01:34;;;;;;;3.43;2.80;;;25.60;99.90;;;;;;4993647;28;20228;-65
2022/08/09 12:04:02;;;;;;;3.53;2.07;;;25.70;99.90;;;;;;4993936;28;20203;-69
2022/08/09 12:06:31;;;;;;;3.80;2.23;;;25.80;99.90;;;;;;4993598;28;20215;-69
2022/08/09 12:09:00;;;;;;;4.27;2.60;;;25.70;99.90;;;;;;4994030;28;20207;-68
2022/08/09 12:11:28;;;;;;;4.03;2.60;;;25.70;99.90;;;;;;4993309;28;20232;-68
2022/08/09 12:13:56;;;;;;;5.30;2.63;;;25.70;99.90;;;;;;4994211;28;20211;-68
2022/08/09 12:16:28;;;;;;;6.53;2.70;;;25.80;99.90;;;;;;4993798;28;20362;-68
2022/08/09 12:18:55;;;;;;;4.53;3.07;;;26.00;99.90;;;;;;4992642;28;20207;-68
2022/08/09 12:21:27;;;;;;;4.20;2.90;;;26.00;99.90;;;;;;4993204;28;20228;-66
2022/08/09 12:23:55;;;;;;;5.73;2.60;;;26.00;99.90;;;;;;4993015;28;20219;-65
2022/08/09 12:26:24;;;;;;;3.00;2.50;;;25.90;99.90;;;;;;4993179;28;20212;-66
2022/08/09 12:28:52;;;;;;;4.40;2.70;;;26.00;99.90;;;;;;4993425;28;20262;-68
2022/08/09 12:31:26;;;;;;;4.73;2.20;;;26.00;99.90;;;;;;4992773;28;20243;-68
2022/08/09 12:33:54;;;;;;;3.67;2.17;;;26.20;99.90;;;;;;4993341;28;20628;-67
2022/08/09 12:36:22;;;;;;;4.83;2.40;;;26.10;99.90;;;;;;4992651;28;20266;-68
2022/08/09 12:38:50;;;;;;;5.03;2.57;;;26.30;99.90;;;;;;4993008;28;20302;-67
2022/08/09 12:41:26;;;;;;;3.33;2.60;;;26.40;99.90;;;;;;4992818;28;20342;-65
2022/08/09 12:43:54;;;;;;;3.23;2.43;;;26.20;99.90;;;;;;4994328;28;20215;-64
2022/08/09 12:46:21;;;;;;;4.97;2.40;;;26.10;99.90;;;;;;4993566;28;20247;-68
2022/08/09 12:48:48;;;;;;;4.00;2.80;;;26.30;99.90;;;;;;4992754;28;20591;-70
2022/08/09 12:51:18;;;;;;;3.70;2.60;;;26.10;99.90;;;;;;4992322;28;20319;-69
2022/08/09 12:53:45;;;;;;;4.27;2.70;;;25.90;99.90;;;;;;4993043;28;20204;-68
2022/08/09 12:56:15;;;;;;;3.83;2.77;;;25.90;99.90;;;;;;4992733;28;20211;-71